Main page
METAR-TAF:

METAR-TAF

Airports :

Oil platform

Heimdal, Norway

latitude: 59-34-12N, longitude: 2-13-48E, elevation: 10 m

Current weather observation

The report was made 28 minutes ago, at 05:20 UTC
Wind 15 kt from the South/Southeast
Temperature 16°C
Humidity 88%
Pressure 1012 hPa
Visibility 10 km or more
Broken clouds at a height of 1300 ft

METAR: ENHM 170520Z 15015KT 9999 BKN013 16/14 Q1012 W16/S4

Time: 07:48 (05:48 UTC)

Forecast

The report was made 18 hours and 48 minutes ago, at 11:00 UTC
Forecast valid from 16 at 12 UTC to 16 at 17 UTC
Wind 20 kt from the South/Southeast
Visibility: 0300 m
at a height of 200 ft
fog
Becoming
from 16 at 12 UTC to 16 at 13 UTC
Visibility 10 km or more
Few clouds at a height of 500 ft
Broken clouds at a height of 7000 ft

TAF: ENHM 161100Z 1612/1617 16020KT 0300 FG VV002 BECMG 1612/1613 9999 FEW005 BKN070

Weather observations and forecasts of more than 4000 airports (METAR and TAF reports).

The available stations are represented by yellow and red dots on the map.

Hover mouse over dot to see the name of the station.

Then click to see weather observations and forecasts.

To change the map : click on the green buttons with a black cross to zoom in, on the green button with a dash to zoom out, or on the green arrows for adjacent maps.


METAR-TAF: